sensor_id;sensor_type;location;lat;lon;timestamp;P1;durP1;ratioP1;P2;durP2;ratioP2
5847;SDS011;8756;49.29324300;8.70599800;2023-03-05T00:01:16;62.77;;;22.80;;
5847;SDS011;8756;49.29324300;8.70599800;2023-03-05T00:03:49;57.90;;;24.00;;
5847;SDS011;8756;49.29324300;8.70599800;2023-03-05T00:06:17;57.33;;;23.80;;
5847;SDS011;8756;49.29324300;8.70599800;2023-03-05T00:08:44;58.30;;;22.57;;
5847;SDS011;8756;49.29324300;8.70599800;2023-03-05T00:11:10;44.93;;;20.80;;
5847;SDS011;8756;49.29324300;8.70599800;2023-03-05T00:13:36;59.13;;;22.47;;
5847;SDS011;8756;49.29324300;8.70599800;2023-03-05T00:16:03;51.53;;;23.40;;
5847;SDS011;8756;49.29324300;8.70599800;2023-03-05T00:18:34;56.33;;;23.30;;
5847;SDS011;8756;49.29324300;8.70599800;2023-03-05T00:21:00;55.93;;;20.90;;
5847;SDS011;8756;49.29324300;8.70599800;2023-03-05T00:23:26;56.47;;;23.10;;
5847;SDS011;8756;49.29324300;8.70599800;2023-03-05T00:25:52;61.47;;;24.93;;
5847;SDS011;8756;49.29324300;8.70599800;2023-03-05T00:28:18;48.03;;;20.97;;
5847;SDS011;8756;49.29324300;8.70599800;2023-03-05T00:30:47;45.70;;;23.00;;
5847;SDS011;8756;49.29324300;8.70599800;2023-03-05T00:33:12;55.60;;;24.77;;
5847;SDS011;8756;49.29324300;8.70599800;2023-03-05T00:35:39;59.90;;;22.83;;
5847;SDS011;8756;49.29324300;8.70599800;2023-03-05T00:38:07;55.70;;;24.13;;
5847;SDS011;8756;49.29324300;8.70599800;2023-03-05T00:40:34;54.33;;;21.00;;
5847;SDS011;8756;49.29324300;8.70599800;2023-03-05T00:43:04;55.87;;;21.93;;
5847;SDS011;8756;49.29324300;8.70599800;2023-03-05T00:45:30;54.17;;;20.37;;
5847;SDS011;8756;49.29324300;8.70599800;2023-03-05T00:47:56;51.97;;;21.70;;
5847;SDS011;8756;49.29324300;8.70599800;2023-03-05T00:50:22;54.80;;;21.50;;
5847;SDS011;8756;49.29324300;8.70599800;2023-03-05T00:52:50;59.70;;;24.10;;
5847;SDS011;8756;49.29324300;8.70599800;2023-03-05T00:55:16;55.97;;;21.77;;
5847;SDS011;8756;49.29324300;8.70599800;2023-03-05T00:57:42;50.77;;;21.83;;
5847;SDS011;8756;49.29324300;8.70599800;2023-03-05T01:00:08;51.47;;;22.90;;
5847;SDS011;8756;49.29324300;8.70599800;2023-03-05T01:02:36;51.50;;;20.10;;
5847;SDS011;8756;49.29324300;8.70599800;2023-03-05T01:05:02;60.00;;;24.77;;
5847;SDS011;8756;49.29324300;8.70599800;2023-03-05T01:07:28;55.40;;;20.23;;
5847;SDS011;8756;49.29324300;8.70599800;2023-03-05T01:09:54;56.13;;;22.27;;
5847;SDS011;8756;49.29324300;8.70599800;2023-03-05T01:12:19;63.27;;;22.73;;
5847;SDS011;8756;49.29324300;8.70599800;2023-03-05T01:14:45;59.47;;;23.20;;
5847;SDS011;8756;49.29324300;8.70599800;2023-03-05T01:17:10;55.90;;;22.70;;
5847;SDS011;8756;49.29324300;8.70599800;2023-03-05T01:19:36;51.23;;;22.53;;
5847;SDS011;8756;49.29324300;8.70599800;2023-03-05T01:22:02;60.87;;;22.90;;
5847;SDS011;8756;49.29324300;8.70599800;2023-03-05T01:24:29;53.13;;;22.70;;
5847;SDS011;8756;49.29324300;8.70599800;2023-03-05T01:26:55;58.00;;;22.80;;
5847;SDS011;8756;49.29324300;8.70599800;2023-03-05T01:29:21;52.40;;;23.37;;
5847;SDS011;8756;49.29324300;8.70599800;2023-03-05T01:31:47;53.83;;;20.00;;
5847;SDS011;8756;49.29324300;8.70599800;2023-03-05T01:34:13;46.03;;;21.87;;
5847;SDS011;8756;49.29324300;8.70599800;2023-03-05T01:36:40;54.35;;;22.95;;
5847;SDS011;8756;49.29324300;8.70599800;2023-03-05T01:39:06;47.00;;;20.90;;
5847;SDS011;8756;49.29324300;8.70599800;2023-03-05T01:41:32;55.00;;;21.20;;
5847;SDS011;8756;49.29324300;8.70599800;2023-03-05T01:43:58;56.80;;;21.80;;
5847;SDS011;8756;49.29324300;8.70599800;2023-03-05T01:46:25;54.10;;;22.60;;
5847;SDS011;8756;49.29324300;8.70599800;2023-03-05T01:48:53;56.10;;;22.80;;
5847;SDS011;8756;49.29324300;8.70599800;2023-03-05T01:51:39;53.27;;;21.90;;
5847;SDS011;8756;49.29324300;8.70599800;2023-03-05T01:54:19;54.90;;;22.73;;
5847;SDS011;8756;49.29324300;8.70599800;2023-03-05T01:56:47;52.97;;;21.63;;
5847;SDS011;8756;49.29324300;8.70599800;2023-03-05T01:59:15;63.03;;;21.47;;
5847;SDS011;8756;49.29324300;8.70599800;2023-03-05T02:01:43;53.53;;;22.87;;
5847;SDS011;8756;49.29324300;8.70599800;2023-03-05T02:04:14;53.57;;;21.10;;
5847;SDS011;8756;49.29324300;8.70599800;2023-03-05T02:06:43;52.70;;;21.13;;
5847;SDS011;8756;49.29324300;8.70599800;2023-03-05T02:09:09;53.90;;;22.97;;
5847;SDS011;8756;49.29324300;8.70599800;2023-03-05T02:11:35;56.90;;;23.40;;
5847;SDS011;8756;49.29324300;8.70599800;2023-03-05T02:14:02;53.30;;;20.50;;
5847;SDS011;8756;49.29324300;8.70599800;2023-03-05T02:16:29;51.53;;;22.83;;
5847;SDS011;8756;49.29324300;8.70599800;2023-03-05T02:19:01;45.57;;;20.77;;
5847;SDS011;8756;49.29324300;8.70599800;2023-03-05T02:21:37;54.80;;;22.03;;
5847;SDS011;8756;49.29324300;8.70599800;2023-03-05T02:24:13;51.57;;;23.50;;
5847;SDS011;8756;49.29324300;8.70599800;2023-03-05T02:26:43;45.23;;;21.77;;
5847;SDS011;8756;49.29324300;8.70599800;2023-03-05T02:29:12;50.30;;;20.47;;
5847;SDS011;8756;49.29324300;8.70599800;2023-03-05T02:31:42;52.50;;;21.30;;
5847;SDS011;8756;49.29324300;8.70599800;2023-03-05T02:34:08;48.87;;;20.80;;
5847;SDS011;8756;49.29324300;8.70599800;2023-03-05T02:36:34;57.57;;;22.40;;
5847;SDS011;8756;49.29324300;8.70599800;2023-03-05T02:38:59;58.80;;;21.53;;
5847;SDS011;8756;49.29324300;8.70599800;2023-03-05T02:41:25;59.47;;;22.20;;
5847;SDS011;8756;49.29324300;8.70599800;2023-03-05T02:43:52;51.17;;;21.63;;
5847;SDS011;8756;49.29324300;8.70599800;2023-03-05T02:46:17;56.47;;;22.30;;
5847;SDS011;8756;49.29324300;8.70599800;2023-03-05T02:48:43;59.33;;;20.07;;
5847;SDS011;8756;49.29324300;8.70599800;2023-03-05T02:51:09;55.00;;;21.77;;
5847;SDS011;8756;49.29324300;8.70599800;2023-03-05T02:53:35;53.20;;;22.57;;
5847;SDS011;8756;49.29324300;8.70599800;2023-03-05T02:56:01;50.63;;;20.87;;
5847;SDS011;8756;49.29324300;8.70599800;2023-03-05T02:58:28;48.83;;;19.33;;
5847;SDS011;8756;49.29324300;8.70599800;2023-03-05T03:00:53;55.97;;;22.53;;
5847;SDS011;8756;49.29324300;8.70599800;2023-03-05T03:03:19;58.73;;;21.70;;
5847;SDS011;8756;49.29324300;8.70599800;2023-03-05T03:05:45;49.60;;;21.80;;
5847;SDS011;8756;49.29324300;8.70599800;2023-03-05T03:08:10;49.30;;;21.30;;
5847;SDS011;8756;49.29324300;8.70599800;2023-03-05T03:10:36;54.07;;;19.70;;
5847;SDS011;8756;49.29324300;8.70599800;2023-03-05T03:13:02;62.13;;;24.20;;
5847;SDS011;8756;49.29324300;8.70599800;2023-03-05T03:15:28;54.13;;;23.80;;
5847;SDS011;8756;49.29324300;8.70599800;2023-03-05T03:17:54;46.83;;;19.50;;
5847;SDS011;8756;49.29324300;8.70599800;2023-03-05T03:20:19;51.57;;;20.30;;
5847;SDS011;8756;49.29324300;8.70599800;2023-03-05T03:22:46;52.50;;;22.67;;
5847;SDS011;8756;49.29324300;8.70599800;2023-03-05T03:25:19;45.93;;;19.60;;
5847;SDS011;8756;49.29324300;8.70599800;2023-03-05T03:27:47;58.97;;;20.63;;
5847;SDS011;8756;49.29324300;8.70599800;2023-03-05T03:30:13;48.17;;;21.67;;
5847;SDS011;8756;49.29324300;8.70599800;2023-03-05T03:32:39;48.77;;;20.73;;
5847;SDS011;8756;49.29324300;8.70599800;2023-03-05T03:35:05;55.20;;;22.87;;
5847;SDS011;8756;49.29324300;8.70599800;2023-03-05T03:37:32;55.07;;;21.03;;
5847;SDS011;8756;49.29324300;8.70599800;2023-03-05T03:39:57;54.33;;;21.60;;
5847;SDS011;8756;49.29324300;8.70599800;2023-03-05T03:42:23;52.27;;;21.20;;
5847;SDS011;8756;49.29324300;8.70599800;2023-03-05T03:44:49;59.13;;;24.17;;
5847;SDS011;8756;49.29324300;8.70599800;2023-03-05T03:47:15;56.23;;;21.53;;
5847;SDS011;8756;49.29324300;8.70599800;2023-03-05T03:49:41;51.17;;;20.87;;
5847;SDS011;8756;49.29324300;8.70599800;2023-03-05T03:52:07;53.87;;;20.03;;
5847;SDS011;8756;49.29324300;8.70599800;2023-03-05T03:54:33;48.37;;;19.70;;
5847;SDS011;8756;49.29324300;8.70599800;2023-03-05T03:56:59;48.80;;;21.23;;
5847;SDS011;8756;49.29324300;8.70599800;2023-03-05T03:59:25;51.27;;;20.30;;
5847;SDS011;8756;49.29324300;8.70599800;2023-03-05T04:01:50;40.87;;;19.57;;
5847;SDS011;8756;49.29324300;8.70599800;2023-03-05T04:04:16;54.63;;;22.17;;
5847;SDS011;8756;49.29324300;8.70599800;2023-03-05T04:06:42;56.27;;;20.20;;
5847;SDS011;8756;49.29324300;8.70599800;2023-03-05T04:09:08;52.40;;;20.83;;
5847;SDS011;8756;49.29324300;8.70599800;2023-03-05T04:11:34;50.37;;;19.83;;
5847;SDS011;8756;49.29324300;8.70599800;2023-03-05T04:14:01;57.67;;;20.63;;
5847;SDS011;8756;49.29324300;8.70599800;2023-03-05T04:16:28;44.43;;;20.00;;
5847;SDS011;8756;49.29324300;8.70599800;2023-03-05T04:18:53;46.57;;;20.43;;
5847;SDS011;8756;49.29324300;8.70599800;2023-03-05T04:21:19;53.67;;;20.50;;
5847;SDS011;8756;49.29324300;8.70599800;2023-03-05T04:23:45;59.37;;;19.70;;
5847;SDS011;8756;49.29324300;8.70599800;2023-03-05T04:26:11;58.77;;;23.40;;
5847;SDS011;8756;49.29324300;8.70599800;2023-03-05T04:28:36;47.80;;;19.97;;
5847;SDS011;8756;49.29324300;8.70599800;2023-03-05T04:31:02;56.57;;;20.77;;
5847;SDS011;8756;49.29324300;8.70599800;2023-03-05T04:33:29;56.63;;;21.03;;
5847;SDS011;8756;49.29324300;8.70599800;2023-03-05T04:35:54;45.60;;;19.20;;
5847;SDS011;8756;49.29324300;8.70599800;2023-03-05T04:38:20;51.50;;;21.87;;
5847;SDS011;8756;49.29324300;8.70599800;2023-03-05T04:40:46;56.10;;;21.30;;
5847;SDS011;8756;49.29324300;8.70599800;2023-03-05T04:43:12;51.43;;;20.73;;
5847;SDS011;8756;49.29324300;8.70599800;2023-03-05T04:45:38;53.57;;;20.20;;
5847;SDS011;8756;49.29324300;8.70599800;2023-03-05T04:48:06;50.37;;;20.67;;
5847;SDS011;8756;49.29324300;8.70599800;2023-03-05T04:50:33;58.17;;;22.03;;
5847;SDS011;8756;49.29324300;8.70599800;2023-03-05T04:52:58;47.50;;;21.57;;
5847;SDS011;8756;49.29324300;8.70599800;2023-03-05T04:55:24;53.03;;;19.93;;
5847;SDS011;8756;49.29324300;8.70599800;2023-03-05T04:57:51;57.90;;;21.37;;
5847;SDS011;8756;49.29324300;8.70599800;2023-03-05T05:00:17;51.57;;;23.03;;
5847;SDS011;8756;49.29324300;8.70599800;2023-03-05T05:02:44;48.67;;;19.87;;
5847;SDS011;8756;49.29324300;8.70599800;2023-03-05T05:05:14;47.47;;;19.67;;
5847;SDS011;8756;49.29324300;8.70599800;2023-03-05T05:07:45;47.37;;;19.70;;
5847;SDS011;8756;49.29324300;8.70599800;2023-03-05T05:10:12;56.83;;;21.23;;
5847;SDS011;8756;49.29324300;8.70599800;2023-03-05T05:12:39;51.17;;;19.90;;
5847;SDS011;8756;49.29324300;8.70599800;2023-03-05T05:15:06;41.77;;;19.03;;
5847;SDS011;8756;49.29324300;8.70599800;2023-03-05T05:17:33;51.27;;;20.50;;
5847;SDS011;8756;49.29324300;8.70599800;2023-03-05T05:19:59;48.17;;;20.77;;
5847;SDS011;8756;49.29324300;8.70599800;2023-03-05T05:22:26;50.67;;;20.33;;
5847;SDS011;8756;49.29324300;8.70599800;2023-03-05T05:24:53;53.87;;;22.40;;
5847;SDS011;8756;49.29324300;8.70599800;2023-03-05T05:27:19;54.33;;;19.63;;
5847;SDS011;8756;49.29324300;8.70599800;2023-03-05T05:29:46;46.63;;;20.10;;
5847;SDS011;8756;49.29324300;8.70599800;2023-03-05T05:32:14;53.20;;;21.10;;
5847;SDS011;8756;49.29324300;8.70599800;2023-03-05T05:34:41;53.70;;;20.23;;
5847;SDS011;8756;49.29324300;8.70599800;2023-03-05T05:37:07;54.50;;;23.00;;
5847;SDS011;8756;49.29324300;8.70599800;2023-03-05T05:39:33;58.47;;;22.10;;
5847;SDS011;8756;49.29324300;8.70599800;2023-03-05T05:42:00;52.60;;;23.17;;
5847;SDS011;8756;49.29324300;8.70599800;2023-03-05T05:44:26;49.07;;;21.53;;
5847;SDS011;8756;49.29324300;8.70599800;2023-03-05T05:46:51;56.53;;;21.97;;
5847;SDS011;8756;49.29324300;8.70599800;2023-03-05T05:49:17;54.83;;;20.90;;
5847;SDS011;8756;49.29324300;8.70599800;2023-03-05T05:51:43;52.80;;;21.20;;
5847;SDS011;8756;49.29324300;8.70599800;2023-03-05T05:54:11;49.87;;;21.00;;
5847;SDS011;8756;49.29324300;8.70599800;2023-03-05T05:56:38;56.40;;;22.83;;
5847;SDS011;8756;49.29324300;8.70599800;2023-03-05T05:59:04;50.67;;;22.30;;
5847;SDS011;8756;49.29324300;8.70599800;2023-03-05T06:01:31;55.90;;;22.00;;
5847;SDS011;8756;49.29324300;8.70599800;2023-03-05T06:03:58;52.80;;;22.63;;
5847;SDS011;8756;49.29324300;8.70599800;2023-03-05T06:06:27;53.57;;;20.27;;
5847;SDS011;8756;49.29324300;8.70599800;2023-03-05T06:08:53;49.67;;;20.80;;
5847;SDS011;8756;49.29324300;8.70599800;2023-03-05T06:11:20;49.63;;;22.13;;
5847;SDS011;8756;49.29324300;8.70599800;2023-03-05T06:13:46;47.57;;;19.50;;
5847;SDS011;8756;49.29324300;8.70599800;2023-03-05T06:16:14;64.13;;;21.60;;
5847;SDS011;8756;49.29324300;8.70599800;2023-03-05T06:18:43;55.33;;;22.90;;
5847;SDS011;8756;49.29324300;8.70599800;2023-03-05T06:21:10;55.53;;;24.37;;
5847;SDS011;8756;49.29324300;8.70599800;2023-03-05T06:23:38;88.03;;;28.80;;
5847;SDS011;8756;49.29324300;8.70599800;2023-03-05T06:26:06;66.30;;;26.53;;
5847;SDS011;8756;49.29324300;8.70599800;2023-03-05T06:28:33;65.20;;;25.63;;
5847;SDS011;8756;49.29324300;8.70599800;2023-03-05T06:31:00;56.47;;;22.27;;
5847;SDS011;8756;49.29324300;8.70599800;2023-03-05T06:33:32;63.63;;;22.10;;
5847;SDS011;8756;49.29324300;8.70599800;2023-03-05T06:35:58;54.33;;;23.80;;
5847;SDS011;8756;49.29324300;8.70599800;2023-03-05T06:38:27;58.43;;;23.80;;
5847;SDS011;8756;49.29324300;8.70599800;2023-03-05T06:40:53;55.20;;;21.97;;
5847;SDS011;8756;49.29324300;8.70599800;2023-03-05T06:43:18;61.30;;;22.30;;
5847;SDS011;8756;49.29324300;8.70599800;2023-03-05T06:45:44;56.23;;;22.97;;
5847;SDS011;8756;49.29324300;8.70599800;2023-03-05T06:48:09;59.27;;;24.00;;
5847;SDS011;8756;49.29324300;8.70599800;2023-03-05T06:50:36;55.20;;;22.50;;
5847;SDS011;8756;49.29324300;8.70599800;2023-03-05T06:53:02;49.77;;;21.30;;
5847;SDS011;8756;49.29324300;8.70599800;2023-03-05T06:55:29;53.83;;;22.30;;
5847;SDS011;8756;49.29324300;8.70599800;2023-03-05T06:57:55;54.43;;;23.20;;
5847;SDS011;8756;49.29324300;8.70599800;2023-03-05T07:00:20;52.70;;;22.67;;
5847;SDS011;8756;49.29324300;8.70599800;2023-03-05T07:02:48;55.73;;;22.53;;
5847;SDS011;8756;49.29324300;8.70599800;2023-03-05T07:05:13;51.03;;;20.87;;
5847;SDS011;8756;49.29324300;8.70599800;2023-03-05T07:07:39;50.80;;;20.87;;
5847;SDS011;8756;49.29324300;8.70599800;2023-03-05T07:10:05;51.53;;;23.90;;
5847;SDS011;8756;49.29324300;8.70599800;2023-03-05T07:12:32;51.37;;;21.47;;
5847;SDS011;8756;49.29324300;8.70599800;2023-03-05T07:14:59;55.27;;;21.73;;
5847;SDS011;8756;49.29324300;8.70599800;2023-03-05T07:17:25;59.17;;;23.00;;
5847;SDS011;8756;49.29324300;8.70599800;2023-03-05T07:19:51;58.40;;;23.50;;
5847;SDS011;8756;49.29324300;8.70599800;2023-03-05T07:22:17;58.47;;;22.30;;
5847;SDS011;8756;49.29324300;8.70599800;2023-03-05T07:24:43;53.20;;;21.77;;
5847;SDS011;8756;49.29324300;8.70599800;2023-03-05T07:27:09;62.80;;;22.87;;
5847;SDS011;8756;49.29324300;8.70599800;2023-03-05T07:29:35;53.03;;;21.43;;
5847;SDS011;8756;49.29324300;8.70599800;2023-03-05T07:32:00;52.57;;;21.77;;
5847;SDS011;8756;49.29324300;8.70599800;2023-03-05T07:34:26;52.53;;;22.07;;
5847;SDS011;8756;49.29324300;8.70599800;2023-03-05T07:36:52;57.83;;;23.80;;
5847;SDS011;8756;49.29324300;8.70599800;2023-03-05T07:39:18;54.13;;;23.70;;
5847;SDS011;8756;49.29324300;8.70599800;2023-03-05T07:41:44;52.20;;;22.73;;
5847;SDS011;8756;49.29324300;8.70599800;2023-03-05T07:44:11;59.57;;;24.00;;
5847;SDS011;8756;49.29324300;8.70599800;2023-03-05T07:46:37;60.87;;;24.13;;
5847;SDS011;8756;49.29324300;8.70599800;2023-03-05T07:49:03;53.13;;;22.20;;
5847;SDS011;8756;49.29324300;8.70599800;2023-03-05T07:51:28;64.77;;;25.30;;
5847;SDS011;8756;49.29324300;8.70599800;2023-03-05T07:53:55;58.97;;;22.97;;
5847;SDS011;8756;49.29324300;8.70599800;2023-03-05T07:56:23;62.07;;;23.13;;
5847;SDS011;8756;49.29324300;8.70599800;2023-03-05T07:58:53;56.30;;;24.17;;
5847;SDS011;8756;49.29324300;8.70599800;2023-03-05T08:01:19;61.87;;;22.40;;
5847;SDS011;8756;49.29324300;8.70599800;2023-03-05T08:03:45;54.03;;;24.17;;
5847;SDS011;8756;49.29324300;8.70599800;2023-03-05T08:06:10;53.40;;;22.50;;
5847;SDS011;8756;49.29324300;8.70599800;2023-03-05T08:08:37;51.73;;;21.97;;
5847;SDS011;8756;49.29324300;8.70599800;2023-03-05T08:11:03;48.07;;;23.10;;
5847;SDS011;8756;49.29324300;8.70599800;2023-03-05T08:13:38;55.17;;;23.20;;
5847;SDS011;8756;49.29324300;8.70599800;2023-03-05T08:16:05;60.67;;;24.00;;
5847;SDS011;8756;49.29324300;8.70599800;2023-03-05T08:18:33;55.17;;;23.07;;
5847;SDS011;8756;49.29324300;8.70599800;2023-03-05T08:20:59;56.73;;;23.70;;
5847;SDS011;8756;49.29324300;8.70599800;2023-03-05T08:23:26;63.23;;;24.70;;
5847;SDS011;8756;49.29324300;8.70599800;2023-03-05T08:25:52;61.27;;;25.67;;
5847;SDS011;8756;49.29324300;8.70599800;2023-03-05T08:28:18;53.00;;;24.03;;
5847;SDS011;8756;49.29324300;8.70599800;2023-03-05T08:30:44;54.53;;;23.37;;
5847;SDS011;8756;49.29324300;8.70599800;2023-03-05T08:33:11;54.07;;;22.40;;
5847;SDS011;8756;49.29324300;8.70599800;2023-03-05T08:35:38;54.07;;;22.90;;
5847;SDS011;8756;49.29324300;8.70599800;2023-03-05T08:38:05;45.90;;;22.27;;
5847;SDS011;8756;49.29324300;8.70599800;2023-03-05T08:40:31;54.37;;;22.13;;
5847;SDS011;8756;49.29324300;8.70599800;2023-03-05T08:42:57;50.07;;;22.67;;
5847;SDS011;8756;49.29324300;8.70599800;2023-03-05T08:45:26;48.87;;;22.93;;
5847;SDS011;8756;49.29324300;8.70599800;2023-03-05T08:47:53;56.27;;;22.30;;
5847;SDS011;8756;49.29324300;8.70599800;2023-03-05T08:50:21;51.67;;;23.17;;
5847;SDS011;8756;49.29324300;8.70599800;2023-03-05T08:52:48;48.53;;;21.60;;
5847;SDS011;8756;49.29324300;8.70599800;2023-03-05T08:55:14;46.20;;;20.70;;
5847;SDS011;8756;49.29324300;8.70599800;2023-03-05T08:57:40;47.33;;;19.37;;
5847;SDS011;8756;49.29324300;8.70599800;2023-03-05T09:00:06;44.93;;;21.03;;
5847;SDS011;8756;49.29324300;8.70599800;2023-03-05T09:02:34;49.37;;;24.33;;
5847;SDS011;8756;49.29324300;8.70599800;2023-03-05T09:05:01;48.27;;;22.30;;
5847;SDS011;8756;49.29324300;8.70599800;2023-03-05T09:07:27;54.73;;;21.70;;
5847;SDS011;8756;49.29324300;8.70599800;2023-03-05T09:09:53;40.93;;;21.60;;
5847;SDS011;8756;49.29324300;8.70599800;2023-03-05T09:12:18;51.37;;;22.40;;
5847;SDS011;8756;49.29324300;8.70599800;2023-03-05T09:14:44;52.83;;;23.27;;
5847;SDS011;8756;49.29324300;8.70599800;2023-03-05T09:17:10;58.47;;;22.20;;
5847;SDS011;8756;49.29324300;8.70599800;2023-03-05T09:19:35;56.80;;;23.00;;
5847;SDS011;8756;49.29324300;8.70599800;2023-03-05T09:22:01;48.87;;;22.07;;
5847;SDS011;8756;49.29324300;8.70599800;2023-03-05T09:24:27;45.00;;;21.03;;
5847;SDS011;8756;49.29324300;8.70599800;2023-03-05T09:26:52;41.50;;;19.30;;
5847;SDS011;8756;49.29324300;8.70599800;2023-03-05T09:29:22;43.37;;;19.90;;
5847;SDS011;8756;49.29324300;8.70599800;2023-03-05T09:31:51;37.27;;;19.20;;
5847;SDS011;8756;49.29324300;8.70599800;2023-03-05T09:34:16;40.80;;;19.30;;
5847;SDS011;8756;49.29324300;8.70599800;2023-03-05T09:36:42;45.63;;;21.20;;
5847;SDS011;8756;49.29324300;8.70599800;2023-03-05T09:39:08;45.33;;;20.83;;
5847;SDS011;8756;49.29324300;8.70599800;2023-03-05T09:41:46;39.87;;;19.80;;
5847;SDS011;8756;49.29324300;8.70599800;2023-03-05T09:54:22;39.67;;;18.23;;
5847;SDS011;8756;49.29324300;8.70599800;2023-03-05T09:56:47;37.37;;;17.90;;
5847;SDS011;8756;49.29324300;8.70599800;2023-03-05T09:59:34;43.80;;;17.27;;
5847;SDS011;8756;49.29324300;8.70599800;2023-03-05T10:02:16;35.30;;;17.60;;
5847;SDS011;8756;49.29324300;8.70599800;2023-03-05T10:05:03;39.53;;;18.60;;
5847;SDS011;8756;49.29324300;8.70599800;2023-03-05T10:07:49;39.60;;;16.87;;
5847;SDS011;8756;49.29324300;8.70599800;2023-03-05T10:10:26;44.10;;;19.67;;
5847;SDS011;8756;49.29324300;8.70599800;2023-03-05T10:12:56;50.80;;;22.60;;
5847;SDS011;8756;49.29324300;8.70599800;2023-03-05T10:15:37;34.70;;;17.47;;
5847;SDS011;8756;49.29324300;8.70599800;2023-03-05T10:21:30;37.23;;;17.70;;
5847;SDS011;8756;49.29324300;8.70599800;2023-03-05T10:24:23;33.83;;;16.00;;
5847;SDS011;8756;49.29324300;8.70599800;2023-03-05T10:27:32;38.13;;;15.40;;
5847;SDS011;8756;49.29324300;8.70599800;2023-03-05T10:30:05;32.50;;;16.30;;
5847;SDS011;8756;49.29324300;8.70599800;2023-03-05T10:41:32;33.83;;;16.73;;
5847;SDS011;8756;49.29324300;8.70599800;2023-03-05T10:47:23;37.90;;;16.17;;
5847;SDS011;8756;49.29324300;8.70599800;2023-03-05T10:49:55;30.17;;;15.33;;
5847;SDS011;8756;49.29324300;8.70599800;2023-03-05T10:52:32;32.83;;;14.83;;
5847;SDS011;8756;49.29324300;8.70599800;2023-03-05T10:55:14;29.87;;;15.43;;
5847;SDS011;8756;49.29324300;8.70599800;2023-03-05T10:57:43;27.67;;;13.37;;
5847;SDS011;8756;49.29324300;8.70599800;2023-03-05T11:03:03;30.53;;;15.40;;
5847;SDS011;8756;49.29324300;8.70599800;2023-03-05T11:05:35;25.03;;;12.87;;
5847;SDS011;8756;49.29324300;8.70599800;2023-03-05T11:08:41;28.60;;;12.50;;
5847;SDS011;8756;49.29324300;8.70599800;2023-03-05T11:11:07;24.70;;;11.73;;
5847;SDS011;8756;49.29324300;8.70599800;2023-03-05T11:16:15;24.37;;;12.07;;
5847;SDS011;8756;49.29324300;8.70599800;2023-03-05T11:19:10;23.63;;;12.10;;
5847;SDS011;8756;49.29324300;8.70599800;2023-03-05T11:21:39;24.07;;;11.50;;
5847;SDS011;8756;49.29324300;8.70599800;2023-03-05T11:24:14;29.93;;;11.50;;
5847;SDS011;8756;49.29324300;8.70599800;2023-03-05T11:26:47;25.30;;;11.70;;
5847;SDS011;8756;49.29324300;8.70599800;2023-03-05T11:29:17;25.27;;;11.40;;
5847;SDS011;8756;49.29324300;8.70599800;2023-03-05T11:31:47;20.80;;;10.30;;
5847;SDS011;8756;49.29324300;8.70599800;2023-03-05T11:36:42;20.90;;;11.63;;
5847;SDS011;8756;49.29324300;8.70599800;2023-03-05T11:39:21;22.40;;;11.10;;
5847;SDS011;8756;49.29324300;8.70599800;2023-03-05T11:41:57;24.73;;;10.90;;
5847;SDS011;8756;49.29324300;8.70599800;2023-03-05T11:44:29;27.93;;;11.13;;
5847;SDS011;8756;49.29324300;8.70599800;2023-03-05T11:47:25;22.03;;;11.03;;
5847;SDS011;8756;49.29324300;8.70599800;2023-03-05T11:50:29;21.90;;;9.53;;
5847;SDS011;8756;49.29324300;8.70599800;2023-03-05T11:52:59;25.30;;;10.10;;
5847;SDS011;8756;49.29324300;8.70599800;2023-03-05T11:58:20;20.10;;;9.33;;
5847;SDS011;8756;49.29324300;8.70599800;2023-03-05T12:01:13;25.10;;;11.23;;
5847;SDS011;8756;49.29324300;8.70599800;2023-03-05T12:03:43;18.13;;;7.80;;
5847;SDS011;8756;49.29324300;8.70599800;2023-03-05T12:06:31;21.17;;;8.43;;
5847;SDS011;8756;49.29324300;8.70599800;2023-03-05T12:09:17;17.90;;;7.20;;
5847;SDS011;8756;49.29324300;8.70599800;2023-03-05T12:12:11;23.57;;;7.43;;
5847;SDS011;8756;49.29324300;8.70599800;2023-03-05T12:15:08;18.50;;;8.60;;
5847;SDS011;8756;49.29324300;8.70599800;2023-03-05T12:17:49;19.20;;;8.67;;
5847;SDS011;8756;49.29324300;8.70599800;2023-03-05T12:23:11;19.27;;;8.13;;
5847;SDS011;8756;49.29324300;8.70599800;2023-03-05T12:25:45;22.63;;;9.40;;
5847;SDS011;8756;49.29324300;8.70599800;2023-03-05T12:30:58;19.60;;;9.70;;
5847;SDS011;8756;49.29324300;8.70599800;2023-03-05T12:38:49;29.73;;;10.70;;
5847;SDS011;8756;49.29324300;8.70599800;2023-03-05T12:46:30;25.20;;;10.73;;
5847;SDS011;8756;49.29324300;8.70599800;2023-03-05T12:48:59;26.23;;;10.33;;
5847;SDS011;8756;49.29324300;8.70599800;2023-03-05T12:51:53;44.70;;;22.17;;
5847;SDS011;8756;49.29324300;8.70599800;2023-03-05T12:57:14;32.03;;;14.93;;
5847;SDS011;8756;49.29324300;8.70599800;2023-03-05T12:59:45;21.07;;;8.80;;
5847;SDS011;8756;49.29324300;8.70599800;2023-03-05T13:02:22;23.80;;;10.23;;
5847;SDS011;8756;49.29324300;8.70599800;2023-03-05T13:08:10;21.80;;;8.57;;
5847;SDS011;8756;49.29324300;8.70599800;2023-03-05T13:10:49;17.10;;;8.27;;
5847;SDS011;8756;49.29324300;8.70599800;2023-03-05T13:13:26;18.87;;;7.47;;
5847;SDS011;8756;49.29324300;8.70599800;2023-03-05T13:15:54;20.17;;;6.63;;
5847;SDS011;8756;49.29324300;8.70599800;2023-03-05T13:18:28;15.33;;;7.17;;
5847;SDS011;8756;49.29324300;8.70599800;2023-03-05T13:21:03;17.27;;;7.87;;
5847;SDS011;8756;49.29324300;8.70599800;2023-03-05T13:23:44;21.47;;;9.53;;
5847;SDS011;8756;49.29324300;8.70599800;2023-03-05T13:26:22;25.03;;;11.90;;
5847;SDS011;8756;49.29324300;8.70599800;2023-03-05T13:29:03;23.47;;;12.10;;
5847;SDS011;8756;49.29324300;8.70599800;2023-03-05T13:31:41;21.73;;;9.07;;
5847;SDS011;8756;49.29324300;8.70599800;2023-03-05T13:39:27;14.63;;;6.53;;
5847;SDS011;8756;49.29324300;8.70599800;2023-03-05T13:42:15;17.03;;;7.50;;
5847;SDS011;8756;49.29324300;8.70599800;2023-03-05T13:44:51;19.27;;;8.13;;
5847;SDS011;8756;49.29324300;8.70599800;2023-03-05T13:47:20;17.20;;;7.57;;
5847;SDS011;8756;49.29324300;8.70599800;2023-03-05T13:49:56;19.50;;;7.90;;
5847;SDS011;8756;49.29324300;8.70599800;2023-03-05T13:52:31;16.33;;;7.33;;
5847;SDS011;8756;49.29324300;8.70599800;2023-03-05T13:55:04;17.53;;;8.17;;
5847;SDS011;8756;49.29324300;8.70599800;2023-03-05T13:57:46;16.57;;;7.77;;
5847;SDS011;8756;49.29324300;8.70599800;2023-03-05T14:05:45;27.27;;;11.87;;
5847;SDS011;8756;49.29324300;8.70599800;2023-03-05T14:08:17;16.60;;;6.53;;
5847;SDS011;8756;49.29324300;8.70599800;2023-03-05T14:10:48;14.57;;;6.60;;
5847;SDS011;8756;49.29324300;8.70599800;2023-03-05T14:13:16;15.63;;;6.73;;